Time;durP1;ratioP1;P1;durP2;ratioP2;P2;SDS_P1;SDS_P2;PMS_P1;PMS_P2;Temp;Humidity;BMP_temperature;BMP_pressure;BME280_temperature;BME280_humidity;BME280_pressure;Samples;Min_cycle;Max_cycle;Signal;HPM_P1;HPM_P2
2023/11/13 00:00:07;;;;;;;8.80;7.90;;;;;;;11.33;63.85;98207.38;6706989;29;20384;-87
2023/11/13 00:03:30;;;;;;;8.77;7.87;;;;;;;11.48;64.72;98202.47;6722812;29;20215;-86
2023/11/13 00:06:51;;;;;;;8.63;7.80;;;;;;;11.96;63.19;98218.69;6725303;29;20224;-87
2023/11/13 00:10:13;;;;;;;9.13;8.20;;;;;;;12.25;62.21;98193.56;6722624;29;20665;-86
2023/11/13 00:13:34;;;;;;;10.73;9.00;;;;;;;11.57;62.70;98139.00;6706693;29;20200;-88
2023/11/13 00:16:56;;;;;;;9.03;8.07;;;;;;;11.85;63.25;98209.50;6710179;29;20676;-88
2023/11/13 00:20:19;;;;;;;9.77;8.77;;;;;;;12.22;62.68;98216.47;6704323;29;20247;-87
2023/11/13 00:23:43;;;;;;;9.67;8.67;;;;;;;12.37;61.91;98192.56;6712187;29;20351;-87
2023/11/13 00:27:04;;;;;;;9.87;8.87;;;;;;;11.95;62.56;98199.00;6722284;29;20201;-88
2023/11/13 00:30:26;;;;;;;11.23;8.67;;;;;;;11.78;62.75;98189.03;6706010;29;20280;-87
2023/11/13 00:33:48;;;;;;;9.90;8.90;;;;;;;11.04;64.88;98154.16;6743882;29;20210;-87
2023/11/13 00:37:14;;;;;;;8.77;7.37;;;;;;;11.39;64.89;98146.31;6757328;29;20363;-87
2023/11/13 00:40:35;;;;;;;10.53;8.17;;;;;;;11.37;64.97;98116.00;6727266;29;20246;-87
2023/11/13 00:43:57;;;;;;;9.13;8.17;;;;;;;11.93;63.63;98162.44;6717692;29;20295;-88
2023/11/13 00:47:18;;;;;;;9.13;7.87;;;;;;;12.02;63.85;98179.97;6708538;29;20205;-87
2023/11/13 00:50:40;;;;;;;8.13;7.33;;;;;;;11.93;62.98;98128.13;6721961;29;20224;-84
2023/11/13 00:54:03;;;;;;;7.43;6.63;;;;;;;12.22;62.17;98121.88;6720094;29;20354;-88
2023/11/13 00:57:25;;;;;;;7.87;7.07;;;;;;;12.62;61.80;98158.03;6704659;29;20232;-88
2023/11/13 01:00:46;;;;;;;7.70;7.00;;;;;;;12.48;62.08;98162.03;6705248;29;20301;-86
2023/11/13 01:04:08;;;;;;;8.17;6.77;;;;;;;12.02;63.21;98158.34;6706546;29;20253;-88
2023/11/13 01:07:30;;;;;;;7.50;6.77;;;;;;;12.04;63.24;98135.47;6750564;29;20242;-87
2023/11/13 01:10:53;;;;;;;7.60;6.90;;;;;;;11.31;64.46;98071.88;6711460;29;20356;-86
2023/11/13 01:14:15;;;;;;;7.93;7.10;;;;;;;11.41;65.06;98101.84;6721889;29;20216;-87
2023/11/13 01:17:36;;;;;;;7.93;7.00;;;;;;;11.78;63.98;98086.41;6718007;29;20212;-87
2023/11/13 01:20:58;;;;;;;7.53;6.53;;;;;;;11.99;63.60;98096.69;6717828;29;20240;-86
2023/11/13 01:24:19;;;;;;;8.40;6.63;;;;;;;12.15;63.71;98136.56;6718232;29;20204;-87
2023/11/13 01:27:42;;;;;;;7.97;7.17;;;;;;;11.65;65.46;98133.34;6704704;29;20240;-87
2023/11/13 01:31:04;;;;;;;7.83;7.03;;;;;;;12.02;64.66;98159.19;6710683;29;20360;-88
2023/11/13 01:34:26;;;;;;;8.27;7.37;;;;;;;12.29;63.99;98129.88;6728094;29;20212;-88
2023/11/13 01:41:23;;;;;;;9.47;8.43;;;;;;;12.02;64.24;98113.25;6702122;29;20248;-87
2023/11/13 01:44:46;;;;;;;8.87;7.97;;;;;;;11.90;63.96;98060.25;6703618;29;20316;-87
2023/11/13 01:48:08;;;;;;;8.33;7.43;;;;;;;12.12;64.53;98113.53;6704334;29;20201;-87
2023/11/13 01:51:30;;;;;;;8.17;7.23;;;;;;;12.30;64.03;98104.50;6726024;29;20261;-88
2023/11/13 01:54:51;;;;;;;9.47;8.07;;;;;;;11.70;65.01;98070.53;6703113;29;20268;-87
2023/11/13 01:58:13;;;;;;;10.40;7.97;;;;;;;12.01;64.74;98081.06;6703466;29;20637;-88
2023/11/13 02:01:37;;;;;;;8.87;7.20;;;;;;;12.33;64.08;98107.56;6706944;29;20236;-88
2023/11/13 02:04:58;;;;;;;9.70;8.10;;;;;;;12.12;64.35;98091.91;6728756;29;20245;-88
2023/11/13 02:08:20;;;;;;;11.30;8.37;;;;;;;11.99;63.95;98064.28;6721963;29;20208;-88
2023/11/13 02:11:43;;;;;;;11.50;8.57;;;;;;;12.14;64.13;98087.09;6703869;29;20759;-87
2023/11/13 02:15:05;;;;;;;9.70;7.97;;;;;;;12.46;63.90;98082.19;6702354;29;20243;-88
2023/11/13 02:18:35;;;;;;;11.03;8.07;;;;;;;12.29;63.56;98057.75;6728066;29;20232;-87
2023/11/13 02:21:58;;;;;;;9.50;8.17;;;;;;;11.69;63.96;97977.09;6706238;29;20352;-87
2023/11/13 02:25:23;;;;;;;10.17;8.17;;;;;;;12.28;63.98;98047.16;6728306;29;20574;-88
2023/11/13 02:28:45;;;;;;;9.37;8.07;;;;;;;12.27;63.80;98032.81;6720171;29;20292;-87
2023/11/13 02:32:07;;;;;;;8.90;7.30;;;;;;;12.47;63.79;98036.00;6707982;29;20350;-85
2023/11/13 02:35:28;;;;;;;8.37;7.30;;;;;;;12.58;62.39;97982.97;6703150;29;20304;-85
2023/11/13 02:38:50;;;;;;;8.23;7.43;;;;;;;12.51;62.81;98002.00;6711898;29;20648;-85
2023/11/13 02:42:13;;;;;;;9.00;7.90;;;;;;;12.49;62.94;98017.66;6712474;29;20303;-85
2023/11/13 02:45:34;;;;;;;8.80;7.63;;;;;;;12.03;63.53;98017.66;6708839;29;20376;-85
2023/11/13 02:48:56;;;;;;;8.87;7.67;;;;;;;12.59;64.07;98069.28;6717537;29;20315;-84
2023/11/13 02:52:18;;;;;;;8.23;7.43;;;;;;;12.25;64.07;98034.94;6733119;29;20255;-85
2023/11/13 02:55:39;;;;;;;10.47;8.47;;;;;;;12.30;63.72;98042.34;6733157;29;20245;-85
2023/11/13 02:59:02;;;;;;;11.30;8.90;;;;;;;11.61;67.79;98045.75;6734740;29;20325;-85
2023/11/13 03:02:24;;;;;;;10.97;9.27;;;;;;;12.22;65.52;98021.88;6741248;29;20252;-85
2023/11/13 03:05:45;;;;;;;11.60;8.50;;;;;;;11.65;65.90;97927.31;6762965;29;20339;-83
2023/11/13 03:09:09;;;;;;;10.20;8.53;;;;;;;12.35;65.44;97993.81;6760003;29;20282;-85
2023/11/13 03:12:30;;;;;;;9.20;7.73;;;;;;;12.52;65.75;98006.34;6755845;29;20284;-86
2023/11/13 03:15:53;;;;;;;9.43;6.80;;;;;;;12.77;65.49;98011.50;6733669;29;20224;-85
2023/11/13 03:19:15;;;;;;;8.30;7.17;;;;;;;12.63;65.78;98045.28;6734355;29;20391;-86
2023/11/13 03:22:37;;;;;;;8.90;6.70;;;;;;;12.31;66.79;98012.38;6732708;29;20270;-86
2023/11/13 03:26:00;;;;;;;7.30;6.03;;;;;;;12.27;66.40;97986.88;6732986;29;20205;-86
2023/11/13 03:29:21;;;;;;;10.63;5.90;;;;;;;12.91;65.87;98015.59;6732651;29;20601;-86
2023/11/13 03:32:44;;;;;;;8.57;5.80;;;;;;;12.89;66.74;98047.47;6733383;29;20683;-86
2023/11/13 03:36:06;;;;;;;5.87;5.37;;;;;;;13.46;64.78;98060.06;6732803;29;20243;-86
2023/11/13 03:39:27;;;;;;;7.20;5.33;;;;;;;12.70;65.47;98059.50;6721587;29;20324;-86
2023/11/13 03:42:49;;;;;;;4.97;4.47;;;;;;;12.50;68.59;98049.03;6706758;29;20927;-86
2023/11/13 03:46:10;;;;;;;5.20;4.53;;;;;;;13.30;66.72;98042.72;6707334;29;20300;-86
2023/11/13 03:49:33;;;;;;;8.50;5.70;;;;;;;12.95;66.01;98057.34;6707751;29;20720;-86
2023/11/13 03:52:55;;;;;;;5.77;5.17;;;;;;;12.96;66.06;98059.00;6707011;29;20747;-86
2023/11/13 03:56:20;;;;;;;5.60;4.87;;;;;;;13.21;66.42;98068.50;6706709;29;20308;-86
2023/11/13 04:00:07;;;;;;;5.97;5.10;;;;;;;13.23;65.47;98081.81;6706299;29;20614;-86
2023/11/13 04:03:31;;;;;;;5.87;5.07;;;;;;;12.90;66.72;98077.00;6705384;29;20704;-84
2023/11/13 04:06:54;;;;;;;7.47;5.07;;;;;;;13.40;65.43;98091.63;6725027;29;20353;-85
2023/11/13 04:10:17;;;;;;;5.10;4.60;;;;;;;13.24;65.89;98061.78;6732853;29;20731;-86
2023/11/13 04:13:39;;;;;;;4.07;3.67;;;;;;;13.34;67.22;98043.03;6717929;29;20648;-86
2023/11/13 04:17:00;;;;;;;6.10;4.30;;;;;;;13.33;67.15;98049.53;6706249;29;20205;-86
2023/11/13 04:20:23;;;;;;;4.87;3.33;;;;;;;13.70;66.80;98094.94;6706235;29;20722;-85
2023/11/13 04:23:47;;;;;;;3.77;2.93;;;;;;;12.96;68.15;98002.19;6705477;29;20213;-86
2023/11/13 04:27:18;;;;;;;4.23;2.63;;;;;;;14.01;67.98;98101.75;6706296;29;20217;-89
2023/11/13 04:30:40;;;;;;;2.87;2.57;;;;;;;14.27;67.27;98055.06;6706477;29;20221;-85
2023/11/13 04:34:01;;;;;;;2.30;2.07;;;;;;;14.31;67.38;98062.47;6705835;29;20217;-85
2023/11/13 04:37:23;;;;;;;3.23;2.37;;;;;;;14.76;66.16;98130.97;6706722;29;20221;-86
2023/11/13 04:40:46;;;;;;;3.17;2.23;;;;;;;15.00;65.18;98128.91;6706145;29;20240;-86
2023/11/13 04:44:08;;;;;;;3.93;2.13;;;;;;;14.98;64.95;98129.16;6706293;29;20354;-85
2023/11/13 04:47:30;;;;;;;7.30;2.57;;;;;;;14.98;64.52;98115.59;6711513;29;20304;-86
2023/11/13 04:50:53;;;;;;;4.90;2.20;;;;;;;15.17;63.32;98127.00;6741227;29;20725;-87
2023/11/13 04:54:15;;;;;;;4.77;1.80;;;;;;;14.95;63.82;98120.69;6733531;29;20220;-86
2023/11/13 04:57:37;;;;;;;5.20;2.10;;;;;;;15.24;63.21;98116.75;6725917;29;20427;-84
2023/11/13 05:00:59;;;;;;;3.90;2.10;;;;;;;15.36;62.62;98107.47;6729398;29;20331;-87
2023/11/13 05:04:20;;;;;;;2.57;2.10;;;;;;;15.22;62.64;98114.28;6727001;29;20346;-86
2023/11/13 05:07:42;;;;;;;6.33;2.60;;;;;;;15.36;62.63;98115.63;6728913;29;20580;-86
2023/11/13 05:11:06;;;;;;;6.90;2.43;;;;;;;15.55;61.65;98116.94;6727101;29;20362;-86
2023/11/13 05:14:29;;;;;;;3.73;2.00;;;;;;;15.70;61.20;98135.31;6727743;29;20220;-87
2023/11/13 05:17:50;;;;;;;4.13;3.20;;;;;;;15.65;61.29;98124.38;6705594;29;20559;-87
2023/11/13 05:21:12;;;;;;;4.97;2.10;;;;;;;15.85;60.71;98127.31;6705499;29;20269;-86
2023/11/13 05:24:33;;;;;;;6.13;2.00;;;;;;;15.86;60.60;98118.13;6704806;29;20219;-86
2023/11/13 05:27:55;;;;;;;7.37;2.20;;;;;;;16.07;60.00;98100.94;6708457;29;20218;-87
2023/11/13 05:31:18;;;;;;;4.23;2.07;;;;;;;15.56;61.36;98120.47;6738880;29;20736;-85
2023/11/13 05:34:40;;;;;;;3.67;2.33;;;;;;;15.55;60.70;98062.59;6754642;29;20677;-85
2023/11/13 05:38:03;;;;;;;7.47;2.40;;;;;;;16.15;59.84;98120.31;6755573;29;20219;-86
2023/11/13 05:41:25;;;;;;;4.03;2.23;;;;;;;16.18;59.40;98106.22;6755925;29;20279;-87
2023/11/13 05:44:46;;;;;;;6.13;2.50;;;;;;;15.59;61.01;98120.81;6755365;29;20567;-86
2023/11/13 05:48:09;;;;;;;11.30;2.63;;;;;;;15.70;59.26;98041.00;6739604;29;20350;-86
2023/11/13 05:51:31;;;;;;;4.50;2.40;;;;;;;15.91;59.73;98113.53;6729679;29;20214;-86
2023/11/13 05:54:52;;;;;;;6.30;2.70;;;;;;;15.84;60.74;98131.97;6728308;29;20747;-85
2023/11/13 05:58:14;;;;;;;6.77;2.63;;;;;;;15.99;59.89;98132.13;6729309;29;20351;-85
2023/11/13 06:01:35;;;;;;;6.50;3.00;;;;;;;16.19;59.41;98147.81;6723036;29;20272;-87
2023/11/13 06:04:58;;;;;;;6.50;2.60;;;;;;;15.88;59.33;98113.25;6727298;29;20212;-86
2023/11/13 06:08:19;;;;;;;12.13;3.53;;;;;;;16.04;59.68;98139.53;6731689;29;20362;-86
2023/11/13 06:11:42;;;;;;;7.13;4.30;;;;;;;16.17;59.00;98131.75;6729791;29;20346;-86
2023/11/13 06:15:04;;;;;;;7.53;2.97;;;;;;;16.08;59.25;98152.34;6729774;29;20669;-87
2023/11/13 06:18:26;;;;;;;9.83;3.17;;;;;;;15.96;59.83;98145.41;6725414;29;20222;-87
2023/11/13 06:21:51;;;;;;;9.33;3.17;;;;;;;16.01;59.43;98143.56;6705108;29;20237;-85
2023/11/13 06:25:12;;;;;;;5.40;3.43;;;;;;;16.10;59.55;98143.94;6720098;29;20217;-87
2023/11/13 06:28:34;;;;;;;6.87;3.33;;;;;;;16.06;59.73;98143.63;6729579;29;20720;-86
2023/11/13 06:31:56;;;;;;;6.37;2.90;;;;;;;16.29;58.84;98148.75;6716995;29;20260;-87
2023/11/13 06:35:18;;;;;;;8.73;3.07;;;;;;;15.53;61.20;98159.84;6730695;29;20209;-87
2023/11/13 06:38:41;;;;;;;7.87;2.97;;;;;;;16.05;60.56;98177.31;6733984;29;20377;-87
2023/11/13 06:42:02;;;;;;;7.50;4.90;;;;;;;15.60;61.63;98167.81;6732143;29;20383;-87
2023/11/13 06:45:24;;;;;;;6.70;3.20;;;;;;;15.73;61.10;98172.84;6731920;29;20272;-87
2023/11/13 06:48:46;;;;;;;9.43;3.97;;;;;;;15.96;61.06;98169.88;6732149;29;20229;-85
2023/11/13 06:52:08;;;;;;;14.63;3.57;;;;;;;15.99;60.59;98147.63;6733689;29;20270;-86
2023/11/13 06:55:46;;;;;;;8.60;4.13;;;;;;;16.13;59.83;98130.66;6738168;29;20215;-86
2023/11/13 06:59:07;;;;;;;9.67;3.97;;;;;;;16.21;59.67;98154.66;6691781;29;20325;-86
2023/11/13 07:02:29;;;;;;;9.67;3.23;;;;;;;16.38;59.31;98147.25;6684853;29;20768;-86
2023/11/13 07:05:50;;;;;;;11.40;3.67;;;;;;;15.72;61.02;98155.75;6685311;29;20706;-85
2023/11/13 07:09:13;;;;;;;15.33;7.00;;;;;;;15.47;62.80;98173.59;6689869;29;20751;-86
2023/11/13 07:12:37;;;;;;;12.50;4.43;;;;;;;15.54;62.56;98168.81;6688741;29;20669;-86
2023/11/13 07:15:59;;;;;;;10.73;3.63;;;;;;;15.11;63.83;98177.66;6686541;29;20245;-86
2023/11/13 07:19:21;;;;;;;10.80;4.20;;;;;;;15.44;63.79;98193.09;6685507;29;20324;-85
2023/11/13 07:22:42;;;;;;;12.47;4.37;;;;;;;14.77;65.64;98175.22;6687216;29;20237;-85
2023/11/13 07:26:04;;;;;;;13.30;4.07;;;;;;;15.96;62.96;98188.91;6683547;29;20297;-86
2023/11/13 07:29:27;;;;;;;7.57;3.50;;;;;;;15.51;64.05;98183.72;6692544;29;20332;-87
2023/11/13 07:32:49;;;;;;;11.40;4.30;;;;;;;15.80;62.33;98179.75;6692492;29;20214;-85
2023/11/13 07:36:11;;;;;;;12.40;4.57;;;;;;;15.60;63.35;98184.94;6720939;29;20352;-86
2023/11/13 07:39:32;;;;;;;9.87;4.27;;;;;;;15.95;61.71;98170.94;6738260;29;20280;-86
2023/11/13 07:42:54;;;;;;;10.70;4.47;;;;;;;16.02;62.15;98209.63;6731171;29;20714;-86
2023/11/13 07:46:18;;;;;;;11.67;4.20;;;;;;;15.94;62.11;98197.34;6733918;29;20217;-86
2023/11/13 07:49:39;;;;;;;8.33;4.70;;;;;;;15.94;62.14;98194.63;6736547;29;20654;-87
2023/11/13 07:53:01;;;;;;;12.23;4.90;;;;;;;15.84;62.37;98209.97;6739284;29;20793;-85
2023/11/13 07:56:22;;;;;;;12.87;6.10;;;;;;;15.58;63.63;98197.94;6738633;29;20672;-85
2023/11/13 07:59:46;;;;;;;12.43;6.27;;;;;;;15.57;64.09;98188.16;6735896;29;20245;-86
2023/11/13 08:03:09;;;;;;;9.83;4.70;;;;;;;15.91;62.61;98181.50;6738292;29;20287;-85
2023/11/13 08:06:31;;;;;;;8.97;4.50;;;;;;;15.64;63.51;98191.50;6737903;29;20283;-86
2023/11/13 08:09:52;;;;;;;11.87;4.63;;;;;;;15.70;63.29;98201.34;6732710;29;20313;-85
2023/11/13 08:13:14;;;;;;;11.33;4.90;;;;;;;15.70;62.87;98198.63;6732870;29;20243;-84
2023/11/13 08:16:36;;;;;;;7.47;3.70;;;;;;;15.49;63.77;98207.59;6734849;29;20218;-85
2023/11/13 08:19:59;;;;;;;8.37;3.83;;;;;;;15.31;63.70;98150.81;6734101;29;20325;-85
2023/11/13 08:23:21;;;;;;;8.10;3.40;;;;;;;15.42;63.85;98187.94;6737646;29;20602;-86
2023/11/13 08:26:42;;;;;;;9.53;4.40;;;;;;;15.47;64.21;98209.75;6724414;29;20783;-85
2023/11/13 08:30:04;;;;;;;11.00;3.97;;;;;;;15.46;64.29;98213.53;6737731;29;20268;-83
2023/11/13 08:33:27;;;;;;;11.47;3.53;;;;;;;15.66;63.77;98213.81;6737404;29;20255;-86
2023/11/13 08:36:51;;;;;;;7.37;3.60;;;;;;;15.81;63.15;98194.16;6735346;29;20248;-86
2023/11/13 08:40:14;;;;;;;8.97;3.70;;;;;;;15.71;62.87;98200.31;6724864;29;20305;-86
2023/11/13 08:43:35;;;;;;;7.07;3.33;;;;;;;15.51;63.89;98215.50;6726732;29;20271;-86
2023/11/13 08:46:57;;;;;;;13.83;4.30;;;;;;;15.64;63.21;98198.84;6742962;29;20304;-86
2023/11/13 08:50:19;;;;;;;9.77;3.17;;;;;;;15.68;62.99;98189.13;6730755;29;20326;-84
2023/11/13 08:53:42;;;;;;;9.70;3.47;;;;;;;15.73;62.51;98194.59;6736874;29;20305;-85
2023/11/13 08:57:07;;;;;;;8.47;3.27;;;;;;;15.77;61.61;98176.72;6741633;29;20208;-86
2023/11/13 09:00:40;;;;;;;7.27;2.80;;;;;;;15.47;62.94;98171.72;6758126;29;20242;-86
2023/11/13 09:04:02;;;;;;;11.43;3.60;;;;;;;15.50;62.70;98192.09;6761635;29;20226;-86
2023/11/13 09:07:24;;;;;;;8.23;3.40;;;;;;;15.64;61.51;98137.13;6738418;29;20296;-87
2023/11/13 09:10:47;;;;;;;5.73;3.03;;;;;;;14.82;62.02;98024.16;6731316;29;20220;-87
2023/11/13 09:14:10;;;;;;;6.63;2.80;;;;;;;15.67;61.60;98155.66;6718821;29;20213;-86
2023/11/13 09:17:41;;;;;;;9.73;3.30;;;;;;;15.65;61.04;98122.50;6712330;29;20353;-86
2023/11/13 09:21:03;;;;;;;5.67;3.20;;;;;;;15.38;60.01;98047.44;6736240;29;20257;-87
2023/11/13 09:24:25;;;;;;;8.63;3.00;;;;;;;15.97;60.06;98136.16;6735699;29;20232;-84
2023/11/13 09:27:50;;;;;;;9.47;2.93;;;;;;;15.92;60.23;98115.19;6733719;29;20356;-87
2023/11/13 09:31:13;;;;;;;5.87;2.80;;;;;;;15.19;61.14;98086.81;6734033;29;20699;-87
2023/11/13 09:34:36;;;;;;;9.13;3.77;;;;;;;15.13;62.11;98075.09;6730604;29;20650;-88
2023/11/13 09:37:58;;;;;;;7.73;3.40;;;;;;;14.97;63.41;98116.66;6727395;29;20245;-87
2023/11/13 09:41:23;;;;;;;8.03;3.30;;;;;;;14.88;63.77;98103.75;6731310;29;20237;-87
2023/11/13 09:44:48;;;;;;;7.17;3.20;;;;;;;15.11;63.72;98119.84;6735433;29;20248;-86
2023/11/13 09:48:11;;;;;;;9.93;3.23;;;;;;;15.17;63.59;98135.13;6735470;29;20220;-85
2023/11/13 09:51:32;;;;;;;6.10;2.83;;;;;;;15.30;62.51;98084.00;6737615;29;20215;-85
2023/11/13 09:55:08;;;;;;;9.37;3.00;;;;;;;15.24;62.39;98065.16;6730113;29;20202;-87
2023/11/13 09:58:32;;;;;;;8.27;3.10;;;;;;;15.14;62.10;98014.28;6730433;29;20249;-86
2023/11/13 10:01:56;;;;;;;5.63;2.90;;;;;;;15.81;62.08;98109.91;6730114;29;20209;-87
2023/11/13 10:05:20;;;;;;;6.63;3.00;;;;;;;15.80;62.35;98094.69;6730439;29;20208;-87
2023/11/13 10:08:43;;;;;;;9.43;3.00;;;;;;;15.80;62.45;98078.38;6726024;29;20233;-88
2023/11/13 10:12:07;;;;;;;4.13;2.50;;;;;;;15.66;62.78;98039.91;6728186;29;20345;-84
2023/11/13 10:15:30;;;;;;;6.23;2.50;;;;;;;15.67;63.55;98078.75;6728307;29;20362;-85
2023/11/13 10:18:53;;;;;;;4.77;2.40;;;;;;;15.63;63.47;98077.63;6721214;29;20225;-85
2023/11/13 10:22:15;;;;;;;5.13;2.50;;;;;;;15.95;63.15;98078.50;6729629;29;20276;-85
2023/11/13 10:25:46;;;;;;;3.97;2.50;;;;;;;15.81;63.67;98063.69;6727787;29;20599;-85
2023/11/13 10:29:19;;;;;;;5.70;2.83;;;;;;;16.18;62.78;98064.59;6729347;29;20701;-86
2023/11/13 10:36:25;;;;;;;8.63;2.97;;;;;;;16.11;61.84;97966.09;6720131;29;20715;-87
2023/11/13 10:39:47;;;;;;;3.43;2.50;;;;;;;16.27;63.14;98044.03;6742092;29;20248;-84
2023/11/13 10:43:09;;;;;;;5.07;2.50;;;;;;;16.39;63.91;98036.53;6740269;29;20924;-86
2023/11/13 10:46:33;;;;;;;5.00;2.53;;;;;;;16.58;63.54;98037.75;6730091;29;20252;-86
2023/11/13 10:49:56;;;;;;;4.80;2.60;;;;;;;16.40;64.17;98022.63;6730053;29;20241;-85
2023/11/13 10:53:19;;;;;;;4.97;2.80;;;;;;;16.25;64.91;98005.34;6730396;29;20213;-85
2023/11/13 10:56:41;;;;;;;5.90;2.67;;;;;;;16.76;63.32;97974.72;6752903;29;20260;-85
2023/11/13 11:04:19;;;;;;;6.77;2.60;;;;;;;17.17;62.33;97990.16;6759072;29;20236;-86
2023/11/13 11:07:43;;;;;;;4.30;2.80;;;;;;;17.11;62.20;97985.78;6760546;29;20240;-88
2023/11/13 11:11:06;;;;;;;6.67;2.63;;;;;;;16.99;63.06;97975.09;6746596;29;20240;-88
2023/11/13 11:14:37;;;;;;;4.87;2.67;;;;;;;17.31;62.47;97988.56;6734173;29;20206;-86
2023/11/13 11:18:06;;;;;;;4.13;2.50;;;;;;;17.23;62.19;98000.78;6740023;29;20216;-88
2023/11/13 11:21:43;;;;;;;5.13;2.57;;;;;;;17.33;62.22;97976.31;6735360;29;20224;-87
2023/11/13 11:25:22;;;;;;;6.30;2.77;;;;;;;17.06;63.60;97959.34;6734393;29;20245;-88
2023/11/13 11:28:48;;;;;;;6.03;2.73;;;;;;;16.96;63.84;97980.25;6728317;29;20255;-88
2023/11/13 11:32:19;;;;;;;5.07;2.77;;;;;;;16.90;64.65;97963.09;6734119;29;20218;-88
2023/11/13 11:35:42;;;;;;;4.50;2.40;;;;;;;17.21;64.05;97970.28;6726682;29;20372;-87
2023/11/13 11:39:13;;;;;;;3.33;2.43;;;;;;;17.45;63.37;97971.47;6734354;29;20234;-88
2023/11/13 11:42:35;;;;;;;7.47;2.90;;;;;;;17.13;64.43;97957.19;6733257;29;20241;-86
2023/11/13 11:45:59;;;;;;;4.90;2.63;;;;;;;17.52;63.27;97966.56;6734091;29;20371;-85
2023/11/13 11:49:25;;;;;;;7.57;2.87;;;;;;;17.44;64.00;97950.75;6733971;29;20268;-85
2023/11/13 11:52:51;;;;;;;5.50;2.80;;;;;;;17.93;61.95;97957.34;6733655;29;20234;-85
2023/11/13 11:56:13;;;;;;;5.17;2.80;;;;;;;17.79;62.63;97934.47;6733909;29;20338;-86
2023/11/13 11:59:35;;;;;;;6.43;2.67;;;;;;;17.89;62.40;97939.91;6734012;29;20325;-86
2023/11/13 12:02:58;;;;;;;5.73;3.00;;;;;;;17.36;63.36;97865.97;6738688;29;20245;-86
2023/11/13 12:06:21;;;;;;;9.37;2.90;;;;;;;17.45;64.01;97880.75;6733926;29;20247;-86
2023/11/13 12:09:43;;;;;;;7.27;2.90;;;;;;;17.76;63.61;97876.94;6749748;29;20628;-86
2023/11/13 12:13:06;;;;;;;6.33;2.83;;;;;;;17.66;64.00;97882.38;6749530;29;20298;-86
2023/11/13 12:16:28;;;;;;;6.47;3.33;;;;;;;17.91;63.22;97904.16;6733441;29;20207;-85
2023/11/13 12:19:51;;;;;;;5.90;3.07;;;;;;;17.23;63.47;97795.66;6733197;29;20265;-86
2023/11/13 12:23:13;;;;;;;5.53;3.77;;;;;;;17.49;64.17;97870.91;6732896;29;20239;-85
2023/11/13 12:26:35;;;;;;;7.00;3.63;;;;;;;17.18;64.21;97791.03;6732788;29;20259;-86
2023/11/13 12:30:00;;;;;;;5.53;3.10;;;;;;;17.53;63.94;97829.25;6733311;29;20231;-86
2023/11/13 12:33:22;;;;;;;8.03;3.17;;;;;;;17.50;65.13;97897.06;6732743;29;20674;-86
2023/11/13 12:36:47;;;;;;;5.13;2.80;;;;;;;17.68;64.25;97863.84;6733091;29;20301;-86
2023/11/13 12:40:10;;;;;;;5.93;2.93;;;;;;;18.15;62.84;97889.69;6731974;29;20247;-86
2023/11/13 12:43:32;;;;;;;4.90;2.70;;;;;;;17.86;63.13;97838.75;6719276;29;20278;-86
2023/11/13 12:46:54;;;;;;;6.00;2.87;;;;;;;18.07;63.31;97867.63;6719941;29;20227;-86
2023/11/13 12:50:16;;;;;;;4.07;2.70;;;;;;;17.55;65.19;97856.19;6707062;29;20574;-85
2023/11/13 12:53:39;;;;;;;6.20;2.53;;;;;;;17.42;65.94;97863.03;6706863;29;20217;-86
2023/11/13 12:57:02;;;;;;;7.87;2.70;;;;;;;17.66;65.01;97855.94;6704895;29;20220;-87
2023/11/13 13:00:26;;;;;;;5.53;2.30;;;;;;;17.71;65.02;97849.66;6706321;29;20235;-86
2023/11/13 13:03:48;;;;;;;6.60;2.40;;;;;;;17.06;67.57;97864.03;6706166;29;20238;-85
2023/11/13 13:07:12;;;;;;;5.90;2.40;;;;;;;17.66;65.98;97823.22;6707271;29;20204;-85
2023/11/13 13:10:36;;;;;;;4.13;2.20;;;;;;;17.78;65.91;97848.28;6707649;29;20386;-86
2023/11/13 13:13:57;;;;;;;3.60;2.53;;;;;;;18.10;64.51;97816.06;6705915;29;20588;-86
2023/11/13 13:17:21;;;;;;;4.80;2.60;;;;;;;17.66;64.48;97756.97;6720584;29;20694;-86
2023/11/13 13:20:43;;;;;;;3.00;2.10;;;;;;;17.86;65.02;97820.47;6715240;29;20232;-89
2023/11/13 13:24:06;;;;;;;4.50;2.23;;;;;;;18.26;63.81;97812.19;6745814;29;20605;-85
2023/11/13 13:27:29;;;;;;;4.20;2.50;;;;;;;17.59;65.67;97810.97;6757145;29;20366;-86
2023/11/13 13:30:51;;;;;;;4.53;2.30;;;;;;;17.89;65.44;97805.47;6757618;29;20231;-85
2023/11/13 13:34:13;;;;;;;3.90;2.20;;;;;;;17.96;65.47;97815.00;6757122;29;20215;-86
2023/11/13 13:37:34;;;;;;;4.30;2.20;;;;;;;17.85;65.56;97797.03;6757310;29;20671;-86
2023/11/13 13:40:56;;;;;;;3.17;2.27;;;;;;;18.12;64.78;97786.59;6756876;29;20266;-86
2023/11/13 13:44:19;;;;;;;4.27;2.17;;;;;;;17.48;64.84;97689.41;6756533;29;20322;-85
2023/11/13 13:47:40;;;;;;;4.87;2.10;;;;;;;18.13;64.00;97769.13;6756740;29;20246;-86
2023/11/13 13:51:05;;;;;;;3.80;2.13;;;;;;;18.49;63.56;97757.00;6757026;29;20256;-86
2023/11/13 13:54:26;;;;;;;2.00;1.70;;;;;;;17.73;66.11;97780.13;6756920;29;20222;-86
2023/11/13 13:57:50;;;;;;;3.33;2.17;;;;;;;17.68;66.30;97771.16;6756699;29;20237;-86
2023/11/13 14:01:13;;;;;;;2.73;1.90;;;;;;;18.31;64.06;97782.19;6756430;29;20233;-85
2023/11/13 14:04:35;;;;;;;2.47;2.00;;;;;;;18.11;64.48;97781.41;6756737;29;20321;-85
2023/11/13 14:07:57;;;;;;;2.27;1.77;;;;;;;18.55;62.75;97777.72;6757642;29;20212;-85
2023/11/13 14:11:19;;;;;;;2.00;1.80;;;;;;;18.19;62.72;97757.09;6757654;29;20383;-85
2023/11/13 14:14:42;;;;;;;2.80;1.70;;;;;;;18.19;63.65;97800.75;6757168;29;20279;-85
2023/11/13 14:18:11;;;;;;;3.30;1.73;;;;;;;18.38;62.50;97781.88;6738697;29;20208;-84
2023/11/13 14:21:33;;;;;;;3.93;1.60;;;;;;;17.68;62.72;97683.94;6712475;29;20705;-85
2023/11/13 14:24:56;;;;;;;1.77;1.53;;;;;;;18.41;62.25;97779.41;6706669;29;20239;-85
2023/11/13 14:28:17;;;;;;;3.03;1.73;;;;;;;18.65;62.00;97791.31;6706912;29;20213;-85
2023/11/13 14:31:40;;;;;;;2.90;1.80;;;;;;;18.72;62.02;97802.75;6706201;29;20220;-85
2023/11/13 14:35:04;;;;;;;4.17;1.60;;;;;;;18.58;62.06;97803.63;6705677;29;20208;-86
2023/11/13 14:38:26;;;;;;;3.33;1.80;;;;;;;18.35;63.11;97807.81;6704875;29;20216;-85
2023/11/13 14:41:48;;;;;;;1.70;1.60;;;;;;;18.51;62.67;97797.66;6707187;29;20224;-84
2023/11/13 14:45:11;;;;;;;1.80;1.70;;;;;;;18.61;62.22;97773.88;6714964;29;20371;-86
2023/11/13 14:48:33;;;;;;;2.90;2.27;;;;;;;18.43;62.17;97788.16;6735093;29;20232;-85
2023/11/13 14:51:55;;;;;;;3.07;2.03;;;;;;;18.56;61.78;97794.91;6732872;29;20215;-84
2023/11/13 14:55:18;;;;;;;1.70;1.60;;;;;;;18.55;62.65;97801.47;6731509;29;20239;-85
2023/11/13 14:58:39;;;;;;;2.50;2.30;;;;;;;18.99;61.50;97792.19;6726881;29;20259;-85
2023/11/13 15:02:01;;;;;;;2.37;1.87;;;;;;;18.83;61.63;97774.28;6706580;29;20255;-85
2023/11/13 15:05:24;;;;;;;3.57;1.70;;;;;;;18.99;61.06;97780.47;6730148;29;20375;-85
2023/11/13 15:08:46;;;;;;;3.23;1.90;;;;;;;18.72;61.04;97750.88;6730407;29;20384;-85
2023/11/13 15:12:11;;;;;;;2.23;1.63;;;;;;;18.75;61.50;97780.31;6730229;29;20204;-87
2023/11/13 15:15:32;;;;;;;2.27;1.80;;;;;;;19.44;59.79;97780.13;6729387;29;20263;-86
2023/11/13 15:18:54;;;;;;;4.60;2.30;;;;;;;19.49;59.13;97786.41;6724308;29;20771;-88
2023/11/13 15:22:16;;;;;;;4.10;3.70;;;;;;;18.90;60.85;97782.97;6731011;29;20668;-86
2023/11/13 15:25:40;;;;;;;6.07;3.60;;;;;;;19.48;59.20;97795.72;6729452;29;20232;-87
2023/11/13 15:29:01;;;;;;;3.50;2.17;;;;;;;19.04;59.80;97769.50;6729319;29;20243;-87
2023/11/13 15:32:23;;;;;;;4.03;2.23;;;;;;;18.68;59.77;97722.50;6729672;29;20232;-86
2023/11/13 15:35:44;;;;;;;3.60;2.50;;;;;;;19.15;59.34;97790.16;6728957;29;20212;-87
2023/11/13 15:39:08;;;;;;;5.23;2.10;;;;;;;19.38;58.81;97787.59;6729078;29;20710;-87
2023/11/13 15:42:32;;;;;;;3.67;1.70;;;;;;;18.66;60.10;97748.44;6728854;29;20221;-87
2023/11/13 15:45:53;;;;;;;2.80;1.70;;;;;;;19.45;59.00;97792.72;6729706;29;20646;-87
2023/11/13 15:49:15;;;;;;;2.40;1.73;;;;;;;19.34;58.56;97780.25;6730853;29;20968;-87
2023/11/13 15:52:37;;;;;;;2.10;1.73;;;;;;;18.86;59.87;97783.84;6730771;29;20253;-87
2023/11/13 15:55:59;;;;;;;1.50;1.50;;;;;;;19.01;59.52;97740.00;6733137;29;20252;-87
2023/11/13 15:59:23;;;;;;;2.97;1.57;;;;;;;19.31;58.73;97767.13;6733614;29;20331;-87
2023/11/13 16:02:46;;;;;;;2.27;1.90;;;;;;;19.07;59.30;97739.69;6732965;29;20220;-86